Aérodrome :
LOGIN :

S'inscrire | Disclaimer

   EN    FR    IT 

 










Légende :    VFR   VFR Marginal   IFR   IFR Intensif   IFR Très Intensif
Visi : 
Plafond : 
>= 8 km
>= 3000ft
5 à 8 km
1000 à 3000 ft
1500m à 5 km
500 à 1000 ft
800 à 1500m
200 à 500 ft
< 800m
< 200 ft
Symboles :   Orages  Brouillard  Fortes neiges  Fortes précipitations  Vent > 20 kt
SIGMETs :   Divers  Orages  Givrage  Turbulence  Onde Orograph.  Cendres Volcan.







- Altitude de l'aérodrome : 184 ft
- Code IATA : BRU


EBBR - Bruxelles

DERNIER METAR :
  • 232150Z 21014KT 4500 DZ BR BKN006 BKN009 11/09 Q1019 TEMPO 22018G28KT 3000 DZ BKN005

METARs EXPIRÉS :
  • 232120Z 21015KT 7000 -DZ BKN009 10/09 Q1019 TEMPO 22018G28KT 3000 DZ BKN005
  • 232050Z 21017KT 4000 DZ BR BKN006 BKN009 10/08 Q1018 TEMPO 22018G28KT 3000 DZ BKN005
  • 232020Z 21017KT 4000 DZ BR BKN005 BKN009 10/08 Q1018 TEMPO 22018G28KT 3000 DZ BKN005
  • 231950Z 21015KT 8000 -DZ SCT008 BKN010 10/08 Q1019 TEMPO 22018G28KT 3000 DZ BKN005
  • 231920Z 21016G26KT 5000 DZ BR SCT006 BKN009 10/08 Q1019 TEMPO 22020G30KT 3000 DZ BKN005
  • 231850Z 21016KT 6000 DZ SCT005 BKN010 10/08 Q1019 TEMPO 3000 DZ BKN005

TAF TAF EBBR
Valide du 23 à 18h jusqu'au 25 à 00h UTC


231703Z 2318/2424 22012KT 9999 SCT006 BKN011
TEMPO 2318/2410 22015G25KT 3500 -RADZ BR SCT005 BKN008
PROB30
TEMPO 2318/2401 2000 -DZ BKN005
BECMG 2407/2409 SCT015 SCT030
TEMPO 2410/2419 22018G35KT
TEMPO 2419/2424 4000 RA SHRA SCT010 BKN014
Pas de NOTAMs connus pour ce terrain.



MET'MAP, la Météo Aéronautique d'un coup d'oeil ! - Copyright ORBIFLY Décembre 2007 - Disclaimer

ORBIFLY MET'MAP TEAM :

Programmation & Développement : Alexandra Zaïnal
Conception & Développement : Baudouin d'Aumeries
Co-Programmation & Développement : Marc-Olivier Méhu
Soutien technique & logistique : Manuel Goepfert

Contact : metmap@orbifly.com




SOURCES & CREDITS :

   NOAA